Roseland, Nebraska
Current Conditions -  °F | °C
As of 12:53 PM on Friday 28 Nov 2014 (Local Time) from KHSI Reporting Station
Clear Clear  
Wind Chill: 69°   Ceiling: Unl
Heat Index: 69°   Visibility: 10mi
Dew Point: 26°   Wind: 13mph
Humidity: 20%   Direction: 230°SW
Pressure: 29.71"   Gusts: 20mph
Location:  40.47°N, 98.56°W
Report Text: KHSI 281853Z AUTO 23011G17KT 10SM CLR 21/M03 A2971 RMK AO2 SLP063 T02061033
Loading
Personal Weather Stations






























Interactive Weather Map New forecast layout! Learn more

10-Day Weather Forecast

Advertisements
Track Severe Weather on mobile